createdAt,value
2019-05-17T00:01:46.919Z,11.17
2019-05-17T00:06:51.422Z,11.27
2019-05-17T00:11:56.852Z,11.03
2019-05-17T00:17:01.388Z,10.77
2019-05-17T00:22:07.434Z,10.83
2019-05-17T00:27:12.053Z,10.67
2019-05-17T00:32:17.156Z,9.93
2019-05-17T00:37:21.610Z,10.70
2019-05-17T00:42:26.424Z,10.47
2019-05-17T00:47:31.043Z,11.00
2019-05-17T00:52:36.899Z,11.13
2019-05-17T00:57:41.556Z,11.47
2019-05-17T01:02:46.893Z,10.83
2019-05-17T01:07:51.451Z,10.77
2019-05-17T01:12:57.531Z,11.20
2019-05-17T01:18:02.183Z,11.83
2019-05-17T01:23:07.646Z,11.97
2019-05-17T01:28:13.271Z,11.90
2019-05-17T01:33:17.711Z,11.30
2019-05-17T01:38:22.115Z,11.43
2019-05-17T01:43:27.324Z,11.75
2019-05-17T01:48:32.809Z,11.67
2019-05-17T01:53:37.177Z,10.73
2019-05-17T01:58:41.584Z,11.23
2019-05-17T02:03:46.917Z,10.50
2019-05-17T02:08:51.768Z,10.77
2019-05-17T02:13:56.278Z,10.97
2019-05-17T02:19:00.604Z,11.30
2019-05-17T02:24:07.762Z,10.67
2019-05-17T02:29:12.070Z,11.27
2019-05-17T02:34:16.522Z,10.53
2019-05-17T02:39:23.269Z,9.40
2019-05-17T02:44:26.908Z,9.77
2019-05-17T02:49:33.111Z,9.73
2019-05-17T02:54:37.357Z,10.43
2019-05-17T02:59:43.312Z,10.50
2019-05-17T03:04:47.861Z,10.53
2019-05-17T03:09:53.407Z,9.43
2019-05-17T03:14:58.320Z,10.40
2019-05-17T03:20:04.247Z,9.70
2019-05-17T03:25:08.921Z,10.00
2019-05-17T03:30:18.867Z,10.10
2019-05-17T03:35:25.678Z,9.30
2019-05-17T03:40:58.453Z,9.67
2019-05-17T03:45:33.947Z,9.70
2019-05-17T03:50:38.357Z,9.10
2019-05-17T03:55:43.113Z,9.93
2019-05-17T04:00:47.553Z,10.07
2019-05-17T04:05:52.898Z,10.40
2019-05-17T04:10:57.615Z,10.63
2019-05-17T04:16:05.912Z,10.70
2019-05-17T04:21:08.088Z,10.90
2019-05-17T04:26:13.526Z,11.20
2019-05-17T04:31:18.201Z,11.80
2019-05-17T04:36:22.783Z,11.63
2019-05-17T04:41:44.688Z,11.40
2019-05-17T04:46:33.243Z,12.00
2019-05-17T04:51:37.683Z,10.93
2019-05-17T04:56:42.706Z,11.40
2019-05-17T05:01:47.855Z,11.70
2019-05-17T05:06:52.837Z,12.20
2019-05-17T05:12:02.617Z,12.20
2019-05-17T05:17:05.218Z,12.37
2019-05-17T05:22:09.552Z,13.60
2019-05-17T05:27:13.957Z,12.70
2019-05-17T05:32:18.309Z,13.37
2019-05-17T05:37:23.260Z,13.17
2019-05-17T05:42:27.817Z,12.83
2019-05-17T05:47:32.417Z,12.50
2019-05-17T05:52:36.851Z,12.23
2019-05-17T05:57:41.965Z,13.10
2019-05-17T06:02:46.877Z,12.83
2019-05-17T06:07:52.251Z,12.90
2019-05-17T06:12:56.881Z,12.37
2019-05-17T06:18:03.034Z,12.83
2019-05-17T06:23:07.357Z,12.73
2019-05-17T06:28:11.808Z,13.80
2019-05-17T06:33:29.918Z,13.70
2019-05-17T06:38:22.583Z,14.87
2019-05-17T06:43:26.988Z,13.97
2019-05-17T06:48:32.087Z,14.23
2019-05-17T06:53:37.488Z,13.93
2019-05-17T06:58:41.873Z,14.03
2019-05-17T07:03:46.267Z,13.53
2019-05-17T07:08:50.678Z,13.20
2019-05-17T07:13:55.051Z,13.67
2019-05-17T07:18:59.802Z,13.43
2019-05-17T07:24:04.364Z,13.70
2019-05-17T07:29:10.048Z,13.23
2019-05-17T07:34:15.627Z,12.67
2019-05-17T07:39:20.480Z,12.97
2019-05-17T07:44:24.942Z,13.93
2019-05-17T07:49:29.475Z,13.80
2019-05-17T07:54:34.292Z,13.70
2019-05-17T07:59:39.710Z,12.27
2019-05-17T08:04:44.212Z,12.07
2019-05-17T08:09:50.626Z,12.03
2019-05-17T08:14:56.301Z,11.57
2019-05-17T08:20:00.972Z,9.87
2019-05-17T08:25:13.057Z,8.77
2019-05-17T08:30:23.821Z,9.53
2019-05-17T08:35:37.264Z,9.00
2019-05-17T08:40:43.706Z,8.07
2019-05-17T08:45:59.299Z,8.17
2019-05-17T08:51:10.568Z,7.70
2019-05-17T08:56:22.879Z,6.77
2019-05-17T09:01:41.731Z,7.07
2019-05-17T09:06:50.292Z,6.70
2019-05-17T09:11:54.216Z,6.20
2019-05-17T09:17:00.368Z,6.33
2019-05-17T09:22:04.858Z,6.17
2019-05-17T09:27:10.159Z,5.53
2019-05-17T09:32:15.536Z,6.00
2019-05-17T09:37:22.485Z,5.40
2019-05-17T09:42:25.960Z,5.97
2019-05-17T09:47:30.313Z,5.50
2019-05-17T09:52:34.626Z,5.47
2019-05-17T09:57:40.870Z,5.23
2019-05-17T10:02:45.564Z,5.13
2019-05-17T10:07:50.695Z,5.47
2019-05-17T10:12:55.284Z,5.17
2019-05-17T10:18:00.579Z,5.00
2019-05-17T10:23:05.217Z,4.97
2019-05-17T10:28:10.178Z,4.60
2019-05-17T10:33:14.702Z,5.37
2019-05-17T10:38:19.505Z,5.10
2019-05-17T10:43:24.091Z,5.33
2019-05-17T10:48:30.126Z,5.10
2019-05-17T10:53:34.677Z,5.57
2019-05-17T10:58:39.948Z,5.30
2019-05-17T11:03:44.615Z,4.83
2019-05-17T11:08:50.167Z,5.37
2019-05-17T11:13:54.636Z,5.13
2019-05-17T11:18:59.052Z,5.67
2019-05-17T11:24:03.472Z,5.50
2019-05-17T11:29:07.823Z,5.30
2019-05-17T11:34:12.234Z,6.50
2019-05-17T11:39:16.552Z,6.67
2019-05-17T11:44:20.923Z,6.20
2019-05-17T11:49:25.261Z,6.57
2019-05-17T11:54:29.683Z,7.40
2019-05-17T11:59:34.042Z,6.73
2019-05-17T12:04:38.464Z,7.93
2019-05-17T12:09:42.811Z,7.70
2019-05-17T12:14:47.162Z,7.80
2019-05-17T12:19:51.577Z,6.67
2019-05-17T12:24:56.111Z,7.40
2019-05-17T12:30:00.505Z,7.33
2019-05-17T12:35:05.449Z,7.70
2019-05-17T12:40:10.564Z,7.63
2019-05-17T12:45:14.999Z,7.60
2019-05-17T12:50:19.964Z,7.57
2019-05-17T12:55:24.304Z,7.63
2019-05-17T13:00:28.710Z,8.07
2019-05-17T13:05:33.075Z,8.03
2019-05-17T13:10:37.418Z,7.73
2019-05-17T13:15:41.836Z,8.57
2019-05-17T13:20:46.270Z,8.23
2019-05-17T13:25:50.657Z,7.83
2019-05-17T13:30:55.009Z,7.97
2019-05-17T13:35:59.402Z,8.73
2019-05-17T13:41:03.791Z,8.03
2019-05-17T13:46:08.217Z,8.67
2019-05-17T13:51:12.549Z,9.37
2019-05-17T13:56:17.004Z,9.30
2019-05-17T14:01:21.358Z,9.67
2019-05-17T14:06:25.724Z,8.93
2019-05-17T14:11:30.077Z,9.47
2019-05-17T14:16:34.889Z,10.13
2019-05-17T14:21:39.433Z,9.20
2019-05-17T14:26:43.782Z,9.23
2019-05-17T14:31:48.201Z,9.37
2019-05-17T14:36:52.558Z,9.77
2019-05-17T14:41:56.936Z,10.13
2019-05-17T14:47:01.304Z,10.27
2019-05-17T14:52:05.668Z,9.10
2019-05-17T14:57:10.216Z,9.27
2019-05-17T15:02:14.642Z,9.93
2019-05-17T15:07:19.003Z,10.47
2019-05-17T15:12:28.432Z,9.80
2019-05-17T15:17:29.439Z,11.53
2019-05-17T15:22:33.791Z,11.03
2019-05-17T15:27:38.952Z,10.37
2019-05-17T15:32:43.379Z,10.80
2019-05-17T15:37:47.835Z,10.77
2019-05-17T15:42:52.184Z,8.87
2019-05-17T15:47:57.005Z,9.07
2019-05-17T15:53:02.539Z,9.80
2019-05-17T15:58:06.992Z,9.37
2019-05-17T16:03:11.473Z,9.47
2019-05-17T16:08:15.839Z,9.57
2019-05-17T16:13:20.258Z,9.27
2019-05-17T16:18:24.885Z,9.33
2019-05-17T16:23:29.230Z,9.07
2019-05-17T16:28:33.674Z,8.00
2019-05-17T16:33:38.126Z,8.53
2019-05-17T16:38:42.513Z,8.20
2019-05-17T16:43:46.919Z,6.50
2019-05-17T16:48:51.340Z,9.20
2019-05-17T16:53:55.685Z,5.83
2019-05-17T16:59:00.082Z,5.50
2019-05-17T17:04:04.740Z,4.83
2019-05-17T17:09:09.173Z,4.67
2019-05-17T17:14:13.535Z,4.37
2019-05-17T17:19:18.015Z,4.43
2019-05-17T17:24:22.368Z,4.50
2019-05-17T17:29:26.815Z,4.23
2019-05-17T17:34:31.151Z,4.00
2019-05-17T17:39:36.578Z,3.70
2019-05-17T17:44:40.982Z,4.20
2019-05-17T17:49:45.334Z,3.93
2019-05-17T17:54:49.709Z,4.60
2019-05-17T17:59:55.689Z,4.67
2019-05-17T18:05:00.385Z,4.33
2019-05-17T18:10:06.518Z,4.30
2019-05-17T18:15:12.909Z,4.30
2019-05-17T18:20:17.283Z,4.43
2019-05-17T18:25:21.718Z,4.20
2019-05-17T18:30:41.237Z,4.43
2019-05-17T18:35:48.638Z,4.60
2019-05-17T18:40:52.983Z,4.07
2019-05-17T18:45:57.382Z,3.73
2019-05-17T18:51:01.885Z,4.40
2019-05-17T18:56:06.240Z,5.03
2019-05-17T19:01:11.640Z,5.20
2019-05-17T19:06:16.013Z,4.90
2019-05-17T19:11:20.366Z,5.13
2019-05-17T19:16:24.679Z,5.43
2019-05-17T19:21:29.232Z,5.27
2019-05-17T19:26:33.600Z,4.90
2019-05-17T19:31:37.932Z,5.07
2019-05-17T19:36:42.281Z,4.67
2019-05-17T19:41:49.474Z,14.43
2019-05-17T19:46:53.852Z,6.50
2019-05-17T19:51:58.223Z,5.90
2019-05-17T19:57:02.592Z,5.77
2019-05-17T20:02:06.940Z,6.40
2019-05-17T20:07:11.340Z,6.47
2019-05-17T20:12:15.674Z,6.53
2019-05-17T20:17:20.085Z,6.47
2019-05-17T20:22:24.532Z,6.60
2019-05-17T20:27:29.040Z,7.03
2019-05-17T20:32:33.483Z,7.17
2019-05-17T20:37:38.425Z,7.10
2019-05-17T20:42:42.764Z,8.13
2019-05-17T20:47:50.327Z,9.30
2019-05-17T20:52:56.342Z,9.40
2019-05-17T20:58:00.776Z,9.00
2019-05-17T21:03:05.472Z,8.50
2019-05-17T21:08:10.037Z,10.10
2019-05-17T21:13:14.424Z,8.57
2019-05-17T21:18:18.833Z,8.30
2019-05-17T21:23:24.291Z,7.47
2019-05-17T21:28:30.311Z,8.13
2019-05-17T21:33:34.729Z,8.50
2019-05-17T21:38:39.059Z,8.73
2019-05-17T21:43:44.753Z,8.67
2019-05-17T21:48:49.382Z,8.33
2019-05-17T21:53:53.738Z,8.13
2019-05-17T21:58:58.124Z,8.20
2019-05-17T22:04:02.515Z,9.37
2019-05-17T22:09:07.787Z,9.00
2019-05-17T22:14:13.628Z,8.67
2019-05-17T22:19:17.993Z,8.73
2019-05-17T22:24:22.381Z,8.97
2019-05-17T22:29:26.882Z,9.80
2019-05-17T22:34:31.234Z,9.07
2019-05-17T22:39:35.612Z,8.77
2019-05-17T22:44:40.049Z,8.30
2019-05-17T22:49:44.396Z,7.93
2019-05-17T22:54:48.776Z,8.23
2019-05-17T22:59:53.119Z,8.07
2019-05-17T23:04:57.464Z,8.33
2019-05-17T23:10:01.899Z,8.37
2019-05-17T23:15:07.641Z,8.23
2019-05-17T23:20:12.830Z,8.00
2019-05-17T23:25:17.211Z,7.67
2019-05-17T23:30:22.576Z,8.67
2019-05-17T23:35:27.085Z,8.00
2019-05-17T23:40:32.308Z,8.10
2019-05-17T23:45:38.602Z,8.57
2019-05-17T23:50:43.220Z,9.27
2019-05-17T23:55:48.600Z,8.70
